BAW36 EGLL-VOMM
Flight info
| Callsign | BAW36 |
|---|---|
| Flight time | N/A |
| Altitude | 33000 |
| Route | DET DCT TIVUN DCT SWALM DCT VELIS DCT OKG DCT PEPIK DCT BUDOP DCT ARTAT P975 ERGUN UL124 EVSAS UM688 RATVO DCT SIDAD P975 SESRU M677 KURTU DCT NOLSU P307 PARAR N571 BEKUT Q9 EPKOS B211 ANIRO ANIRO2F |
| Aircraft | B77W/H-SDE1E2E3FGHIJ2J3J4J5M1RWXY/LB1D1 |
Departure
| Time | N/A |
|---|---|
| Airport | London Heathrow Airport (EGLL) |
Arrival
| Time | 2026-04-21 08:00 |
|---|---|
| Airport | Chennai International Airport (VOMM) |
| Time | Latitude | Longitude | Altitude | Speed | Heading |
|---|---|---|---|---|---|
| 2026-04-21 07:35 | 14.11715 | 78.48505 | 36798 ft | 480 kts | 130° |
| 2026-04-21 07:35 | 14.07969 | 78.54184 | 36842 ft | 477 kts | 130° |
| 2026-04-21 07:36 | 14.04240 | 78.59831 | 36851 ft | 475 kts | 130° |
| 2026-04-21 07:36 | 14.00488 | 78.65453 | 36591 ft | 481 kts | 131° |
| 2026-04-21 07:37 | 13.98567 | 78.68298 | 36090 ft | 485 kts | 130° |
| 2026-04-21 07:37 | 13.96642 | 78.71150 | 35580 ft | 485 kts | 130° |
| 2026-04-21 07:37 | 13.94718 | 78.74004 | 35075 ft | 486 kts | 130° |
| 2026-04-21 07:37 | 13.92784 | 78.76876 | 34599 ft | 490 kts | 130° |
| 2026-04-21 07:38 | 13.90854 | 78.79741 | 34107 ft | 494 kts | 130° |
| 2026-04-21 07:38 | 13.88894 | 78.82651 | 33627 ft | 497 kts | 130° |
| 2026-04-21 07:38 | 13.86914 | 78.85591 | 33133 ft | 499 kts | 130° |
| 2026-04-21 07:38 | 13.84934 | 78.88531 | 32642 ft | 497 kts | 130° |
| 2026-04-21 07:39 | 13.82975 | 78.91445 | 32133 ft | 492 kts | 130° |
| 2026-04-21 07:39 | 13.81041 | 78.94321 | 31621 ft | 487 kts | 130° |
| 2026-04-21 07:39 | 13.79120 | 78.97174 | 31086 ft | 483 kts | 129° |
| 2026-04-21 07:39 | 13.77209 | 79.00009 | 30525 ft | 481 kts | 129° |
| 2026-04-21 07:40 | 13.75301 | 79.02836 | 29975 ft | 478 kts | 129° |
| 2026-04-21 07:40 | 13.73406 | 79.05642 | 29430 ft | 476 kts | 129° |
| 2026-04-21 07:40 | 13.71547 | 79.08394 | 28888 ft | 473 kts | 129° |
| 2026-04-21 07:40 | 13.69669 | 79.11174 | 28346 ft | 471 kts | 128° |
| 2026-04-21 07:41 | 13.67798 | 79.13942 | 27794 ft | 468 kts | 128° |
| 2026-04-21 07:41 | 13.65944 | 79.16683 | 27256 ft | 464 kts | 128° |
| 2026-04-21 07:41 | 13.64133 | 79.19363 | 26710 ft | 460 kts | 128° |
| 2026-04-21 07:41 | 13.62308 | 79.22063 | 26162 ft | 457 kts | 127° |
| 2026-04-21 07:42 | 13.60499 | 79.24737 | 25611 ft | 453 kts | 127° |
| 2026-04-21 07:42 | 13.58702 | 79.27392 | 25062 ft | 450 kts | 127° |
| 2026-04-21 07:42 | 13.56922 | 79.30025 | 24524 ft | 446 kts | 126° |
| 2026-04-21 07:42 | 13.55176 | 79.32602 | 23967 ft | 439 kts | 126° |
| 2026-04-21 07:43 | 13.53459 | 79.35136 | 23383 ft | 423 kts | 126° |
| 2026-04-21 07:43 | 13.51808 | 79.37572 | 22809 ft | 408 kts | 126° |
| 2026-04-21 07:43 | 13.50215 | 79.39923 | 22271 ft | 394 kts | 126° |
| 2026-04-21 07:43 | 13.48672 | 79.42201 | 21681 ft | 383 kts | 125° |
| 2026-04-21 07:44 | 13.47166 | 79.44421 | 21115 ft | 372 kts | 125° |
| 2026-04-21 07:44 | 13.45707 | 79.46572 | 20565 ft | 362 kts | 125° |
| 2026-04-21 07:44 | 13.44311 | 79.48689 | 19988 ft | 353 kts | 121° |
| 2026-04-21 07:44 | 13.43220 | 79.50912 | 19429 ft | 344 kts | 112° |
| 2026-04-21 07:45 | 13.42336 | 79.53151 | 18902 ft | 342 kts | 111° |
| 2026-04-21 07:45 | 13.41443 | 79.55436 | 18376 ft | 345 kts | 111° |
| 2026-04-21 07:45 | 13.40545 | 79.57730 | 17864 ft | 346 kts | 111° |
| 2026-04-21 07:45 | 13.39639 | 79.60034 | 17312 ft | 349 kts | 111° |
| 2026-04-21 07:46 | 13.38720 | 79.62361 | 16763 ft | 352 kts | 111° |
| 2026-04-21 07:46 | 13.37795 | 79.64698 | 16216 ft | 353 kts | 111° |
| 2026-04-21 07:46 | 13.36877 | 79.67014 | 15712 ft | 354 kts | 111° |
| 2026-04-21 07:46 | 13.35948 | 79.69348 | 15177 ft | 347 kts | 111° |
| 2026-04-21 07:47 | 13.35058 | 79.71587 | 14845 ft | 331 kts | 111° |
| 2026-04-21 07:47 | 13.34200 | 79.73737 | 14527 ft | 316 kts | 111° |
| 2026-04-21 07:47 | 13.33394 | 79.75754 | 14206 ft | 303 kts | 111° |
| 2026-04-21 07:47 | 13.32600 | 79.77748 | 13901 ft | 301 kts | 111° |
| 2026-04-21 07:48 | 13.31808 | 79.79739 | 13601 ft | 301 kts | 111° |
| 2026-04-21 07:48 | 13.31013 | 79.81737 | 13258 ft | 303 kts | 111° |
| 2026-04-21 07:48 | 13.30213 | 79.83743 | 12881 ft | 303 kts | 111° |
| 2026-04-21 07:48 | 13.29685 | 79.85068 | 12623 ft | 303 kts | 111° |
| 2026-04-21 07:49 | 13.28887 | 79.87073 | 12196 ft | 303 kts | 111° |
| 2026-04-21 07:49 | 13.28100 | 79.89044 | 11783 ft | 293 kts | 111° |
| 2026-04-21 07:49 | 13.27334 | 79.90956 | 11373 ft | 284 kts | 111° |
| 2026-04-21 07:49 | 13.26596 | 79.92802 | 10953 ft | 275 kts | 111° |
| 2026-04-21 07:50 | 13.25879 | 79.94600 | 10535 ft | 271 kts | 111° |
| 2026-04-21 07:50 | 13.25163 | 79.96391 | 10193 ft | 270 kts | 111° |
| 2026-04-21 07:50 | 13.24450 | 79.98173 | 9839 ft | 269 kts | 111° |
| 2026-04-21 07:50 | 13.23742 | 79.99943 | 9511 ft | 267 kts | 111° |
| 2026-04-21 07:51 | 13.23047 | 80.01689 | 9157 ft | 269 kts | 111° |
| 2026-04-21 07:51 | 13.22336 | 80.03467 | 8805 ft | 268 kts | 112° |
| 2026-04-21 07:51 | 13.21626 | 80.05236 | 8484 ft | 267 kts | 112° |
| 2026-04-21 07:51 | 13.20919 | 80.07001 | 8144 ft | 267 kts | 112° |
| 2026-04-21 07:52 | 13.20210 | 80.08775 | 7776 ft | 268 kts | 112° |
| 2026-04-21 07:52 | 13.19506 | 80.10542 | 7482 ft | 266 kts | 112° |
| 2026-04-21 07:52 | 13.18805 | 80.12294 | 7168 ft | 264 kts | 112° |
| 2026-04-21 07:52 | 13.18115 | 80.14012 | 6861 ft | 260 kts | 112° |
| 2026-04-21 07:53 | 13.17433 | 80.15717 | 6630 ft | 256 kts | 112° |
| 2026-04-21 07:53 | 13.16921 | 80.17448 | 6263 ft | 252 kts | 101° |
| 2026-04-21 07:53 | 13.16626 | 80.19210 | 5945 ft | 248 kts | 99° |
| 2026-04-21 07:53 | 13.16372 | 80.20934 | 5614 ft | 239 kts | 99° |
| 2026-04-21 07:54 | 13.16144 | 80.22577 | 5262 ft | 233 kts | 99° |
| 2026-04-21 07:54 | 13.15926 | 80.24215 | 4989 ft | 230 kts | 99° |
| 2026-04-21 07:54 | 13.15716 | 80.25825 | 4703 ft | 225 kts | 102° |
| 2026-04-21 07:54 | 13.15129 | 80.27253 | 4373 ft | 215 kts | 134° |
| 2026-04-21 07:55 | 13.13944 | 80.28099 | 4182 ft | 203 kts | 156° |
| 2026-04-21 07:55 | 13.12641 | 80.28681 | 3989 ft | 207 kts | 158° |
| 2026-04-21 07:55 | 13.11298 | 80.29255 | 3692 ft | 209 kts | 159° |
| 2026-04-21 07:55 | 13.09961 | 80.29826 | 3364 ft | 206 kts | 159° |
| 2026-04-21 07:56 | 13.08652 | 80.30388 | 3037 ft | 202 kts | 159° |
| 2026-04-21 07:56 | 13.07366 | 80.30947 | 2719 ft | 199 kts | 158° |
| 2026-04-21 07:56 | 13.06079 | 80.31344 | 2342 ft | 193 kts | 178° |
| 2026-04-21 07:56 | 13.04841 | 80.30923 | 2040 ft | 191 kts | 219° |
| 2026-04-21 07:57 | 13.04162 | 80.29744 | 1895 ft | 197 kts | 251° |
| 2026-04-21 07:57 | 13.03616 | 80.28470 | 1815 ft | 193 kts | 236° |
| 2026-04-21 07:57 | 13.02969 | 80.27272 | 1801 ft | 187 kts | 241° |
| 2026-04-21 07:57 | 13.02458 | 80.26092 | 1623 ft | 177 kts | 245° |
| 2026-04-21 07:58 | 13.02039 | 80.24977 | 1419 ft | 161 kts | 246° |
| 2026-04-21 07:58 | 13.01638 | 80.23905 | 1212 ft | 162 kts | 246° |
| 2026-04-21 07:58 | 13.01229 | 80.22805 | 992 ft | 163 kts | 247° |
| 2026-04-21 07:58 | 13.00821 | 80.21717 | 777 ft | 163 kts | 246° |
| 2026-04-21 07:59 | 13.00423 | 80.20649 | 551 ft | 161 kts | 247° |
| 2026-04-21 07:59 | 13.00029 | 80.19585 | 337 ft | 156 kts | 248° |
| 2026-04-21 07:59 | 12.99641 | 80.18555 | 122 ft | 154 kts | 247° |
| 2026-04-21 07:59 | 12.99265 | 80.17563 | 51 ft | 136 kts | 249° |
| 2026-04-21 08:00 | 12.98994 | 80.16839 | 49 ft | 78 kts | 249° |
| 2026-04-21 08:00 | 12.98871 | 80.16517 | 53 ft | 30 kts | 247° |
| 2026-04-21 08:00 | 12.98763 | 80.16372 | 53 ft | 17 kts | 219° |
| 2026-04-21 08:00 | 12.98685 | 80.16306 | 52 ft | 13 kts | 219° |
| 2026-04-21 08:01 | 12.98613 | 80.16246 | 49 ft | 15 kts | 219° |
| 2026-04-21 08:01 | 12.98585 | 80.16251 | 52 ft | 6 kts | 129° |
| 2026-04-21 08:01 | 12.98592 | 80.16293 | 50 ft | 6 kts | 71° |
| 2026-04-21 08:02 | 12.98638 | 80.16273 | 52 ft | 18 kts | 231° |
| 2026-04-21 08:02 | 12.98550 | 80.16182 | 52 ft | 18 kts | 239° |
| 2026-04-21 08:02 | 12.98470 | 80.16128 | 52 ft | 13 kts | 159° |
| 2026-04-21 08:02 | 12.98399 | 80.16168 | 48 ft | 9 kts | 132° |
| 2026-04-21 08:03 | 12.98399 | 80.16217 | 50 ft | 5 kts | 79° |
| 2026-04-21 08:03 | 12.98401 | 80.16238 | 47 ft | 3 kts | 92° |